createdAt,value
2019-05-20T00:00:56.840Z,16.95
2019-05-20T00:03:04.303Z,16.97
2019-05-20T00:05:12.039Z,16.97
2019-05-20T00:07:19.487Z,16.93
2019-05-20T00:09:26.996Z,16.92
2019-05-20T00:11:34.477Z,16.95
2019-05-20T00:13:41.984Z,16.92
2019-05-20T00:15:49.383Z,16.86
2019-05-20T00:17:57.089Z,16.88
2019-05-20T00:20:04.827Z,16.85
2019-05-20T00:22:12.345Z,16.85
2019-05-20T00:24:19.729Z,16.80
2019-05-20T00:26:27.185Z,16.83
2019-05-20T00:28:34.616Z,16.79
2019-05-20T00:30:42.064Z,16.81
2019-05-20T00:32:49.475Z,16.79
2019-05-20T00:34:56.950Z,16.77
2019-05-20T00:37:04.419Z,16.78
2019-05-20T00:39:30.060Z,16.80
2019-05-20T00:41:37.587Z,16.85
2019-05-20T00:43:45.103Z,16.79
2019-05-20T00:45:52.513Z,16.76
2019-05-20T00:47:59.943Z,16.69
2019-05-20T00:50:08.207Z,16.75
2019-05-20T00:52:15.641Z,16.77
2019-05-20T00:54:23.274Z,16.79
2019-05-20T00:56:30.934Z,16.72
2019-05-20T00:58:38.352Z,16.75
2019-05-20T01:00:45.945Z,16.70
2019-05-20T01:02:56.993Z,16.67
2019-05-20T01:05:04.217Z,16.67
2019-05-20T01:07:11.620Z,16.75
2019-05-20T01:09:19.164Z,16.69
2019-05-20T01:11:27.418Z,16.70
2019-05-20T01:13:35.015Z,16.65
2019-05-20T01:15:42.523Z,16.64
2019-05-20T01:17:50.039Z,16.64
2019-05-20T01:19:57.529Z,16.61
2019-05-20T01:22:05.160Z,16.62
2019-05-20T01:24:12.621Z,16.57
2019-05-20T01:26:20.028Z,16.59
2019-05-20T01:28:27.454Z,16.57
2019-05-20T01:30:34.882Z,16.62
2019-05-20T01:32:42.454Z,16.55
2019-05-20T01:34:49.862Z,16.53
2019-05-20T01:36:57.412Z,16.56
2019-05-20T01:39:05.752Z,16.54
2019-05-20T01:41:13.184Z,16.44
2019-05-20T01:43:20.587Z,16.51
2019-05-20T01:45:27.959Z,16.52
2019-05-20T01:47:35.361Z,16.50
2019-05-20T01:49:42.946Z,16.43
2019-05-20T01:51:50.443Z,16.42
2019-05-20T01:53:57.928Z,16.47
2019-05-20T01:56:05.390Z,16.42
2019-05-20T01:58:12.904Z,16.42
2019-05-20T02:00:22.245Z,16.40
2019-05-20T02:02:29.626Z,16.32
2019-05-20T02:04:37.272Z,16.32
2019-05-20T02:06:44.737Z,16.31
2019-05-20T02:08:52.144Z,16.23
2019-05-20T02:10:59.531Z,16.15
2019-05-20T02:13:07.130Z,16.13
2019-05-20T02:15:25.650Z,16.28
2019-05-20T02:17:33.056Z,16.22
2019-05-20T02:19:40.493Z,16.18
2019-05-20T02:21:47.901Z,16.17
2019-05-20T02:23:55.298Z,16.14
2019-05-20T02:26:02.708Z,16.09
2019-05-20T02:28:10.187Z,16.02
2019-05-20T02:30:18.272Z,16.02
2019-05-20T02:32:25.685Z,16.11
2019-05-20T02:34:33.068Z,16.10
2019-05-20T02:36:40.618Z,16.04
2019-05-20T02:38:48.058Z,15.99
2019-05-20T02:40:55.456Z,15.94
2019-05-20T02:43:03.318Z,16.00
2019-05-20T02:45:11.509Z,16.11
2019-05-20T02:47:18.977Z,16.07
2019-05-20T02:49:26.410Z,16.06
2019-05-20T02:51:33.855Z,16.17
2019-05-20T02:53:41.407Z,16.18
2019-05-20T02:55:48.970Z,16.22
2019-05-20T02:57:56.412Z,16.29
2019-05-20T03:00:03.961Z,16.17
2019-05-20T03:02:11.405Z,16.06
2019-05-20T03:04:18.892Z,16.14
2019-05-20T03:06:26.277Z,16.14
2019-05-20T03:08:33.747Z,16.07
2019-05-20T03:10:41.256Z,16.09
2019-05-20T03:12:48.679Z,16.11
2019-05-20T03:14:56.184Z,16.04
2019-05-20T03:17:03.714Z,16.18
2019-05-20T03:19:11.240Z,16.11
2019-05-20T03:21:18.916Z,16.02
2019-05-20T03:23:26.342Z,16.09
2019-05-20T03:25:33.861Z,16.10
2019-05-20T03:27:41.440Z,16.15
2019-05-20T03:29:49.037Z,16.13
2019-05-20T03:31:56.530Z,16.28
2019-05-20T03:34:03.959Z,16.34
2019-05-20T03:36:11.796Z,16.22
2019-05-20T03:38:19.268Z,16.30
2019-05-20T03:40:26.823Z,16.25
2019-05-20T03:42:34.275Z,16.21
2019-05-20T03:44:41.771Z,16.22
2019-05-20T03:46:49.334Z,16.30
2019-05-20T03:48:56.823Z,16.26
2019-05-20T03:51:04.380Z,16.27
2019-05-20T03:53:11.836Z,16.41
2019-05-20T03:55:19.245Z,16.49
2019-05-20T03:57:26.648Z,16.49
2019-05-20T03:59:34.086Z,16.45
2019-05-20T04:01:41.549Z,16.45
2019-05-20T04:03:48.982Z,16.53
2019-05-20T04:05:56.459Z,16.59
2019-05-20T04:08:03.821Z,16.57
2019-05-20T04:10:11.529Z,16.63
2019-05-20T04:12:19.113Z,16.64
2019-05-20T04:14:26.810Z,16.68
2019-05-20T04:16:34.413Z,16.74
2019-05-20T04:18:41.969Z,16.77
2019-05-20T04:20:49.449Z,16.83
2019-05-20T04:22:56.966Z,16.84
2019-05-20T04:25:04.984Z,16.88
2019-05-20T04:27:12.593Z,16.90
2019-05-20T04:29:20.235Z,16.98
2019-05-20T04:31:27.761Z,16.99
2019-05-20T04:33:35.413Z,17.04
2019-05-20T04:35:43.100Z,17.12
2019-05-20T04:37:51.142Z,17.14
2019-05-20T04:39:58.971Z,17.14
2019-05-20T04:42:07.435Z,17.19
2019-05-20T04:44:14.995Z,17.25
2019-05-20T04:46:22.596Z,17.28
2019-05-20T04:48:30.049Z,17.43
2019-05-20T04:50:37.582Z,17.48
2019-05-20T04:52:45.051Z,17.46
2019-05-20T04:54:52.514Z,17.52
2019-05-20T04:57:00.005Z,17.59
2019-05-20T04:59:07.667Z,17.57
2019-05-20T05:01:15.226Z,17.61
2019-05-20T05:03:22.981Z,17.66
2019-05-20T05:05:37.815Z,17.69
2019-05-20T05:07:39.921Z,17.74
2019-05-20T05:09:47.502Z,17.83
2019-05-20T05:11:55.467Z,17.85
2019-05-20T05:14:03.199Z,17.86
2019-05-20T05:16:11.202Z,17.90
2019-05-20T05:18:19.040Z,17.96
2019-05-20T05:20:26.738Z,17.94
2019-05-20T05:22:34.325Z,18.01
2019-05-20T05:24:41.891Z,18.12
2019-05-20T05:26:49.483Z,18.19
2019-05-20T05:28:56.970Z,18.21
2019-05-20T05:31:04.527Z,18.23
2019-05-20T05:33:12.071Z,18.35
2019-05-20T05:35:20.675Z,18.49
2019-05-20T05:37:28.000Z,18.49
2019-05-20T05:39:35.463Z,18.44
2019-05-20T05:41:43.015Z,18.53
2019-05-20T05:43:50.505Z,18.55
2019-05-20T05:45:58.022Z,18.57
2019-05-20T05:48:05.764Z,18.69
2019-05-20T05:50:13.722Z,18.67
2019-05-20T05:52:22.995Z,18.78
2019-05-20T05:54:30.745Z,18.85
2019-05-20T05:56:38.578Z,18.95
2019-05-20T05:58:46.025Z,18.99
2019-05-20T06:00:53.637Z,19.06
2019-05-20T06:03:01.270Z,19.10
2019-05-20T06:05:09.231Z,19.19
2019-05-20T06:07:16.865Z,19.29
2019-05-20T06:09:24.345Z,19.36
2019-05-20T06:13:45.074Z,19.40
2019-05-20T06:15:54.578Z,19.33
2019-05-20T06:18:01.785Z,19.50
2019-05-20T06:20:11.861Z,19.51
2019-05-20T06:22:19.720Z,19.50
2019-05-20T06:24:27.236Z,19.50
2019-05-20T06:26:35.071Z,19.43
2019-05-20T06:28:42.550Z,19.44
2019-05-20T06:30:51.056Z,19.49
2019-05-20T06:32:58.509Z,19.56
2019-05-20T06:35:07.013Z,19.66
2019-05-20T06:37:16.564Z,19.70
2019-05-20T06:39:23.958Z,19.67
2019-05-20T06:41:31.371Z,19.81
2019-05-20T06:43:39.169Z,19.88
2019-05-20T06:45:46.838Z,20.19
2019-05-20T06:47:54.292Z,20.02
2019-05-20T06:50:01.796Z,20.19
2019-05-20T06:52:09.358Z,20.14
2019-05-20T06:54:16.839Z,20.12
2019-05-20T06:56:24.310Z,20.41
2019-05-20T06:58:31.781Z,20.47
2019-05-20T07:00:41.121Z,20.43
2019-05-20T07:02:51.603Z,20.35
2019-05-20T07:04:57.769Z,20.41
2019-05-20T07:07:19.944Z,20.30
2019-05-20T07:09:14.424Z,20.37
2019-05-20T07:11:21.948Z,20.45
2019-05-20T07:13:29.500Z,20.45
2019-05-20T07:15:37.107Z,20.42
2019-05-20T07:17:44.925Z,20.49
2019-05-20T07:20:00.301Z,20.65
2019-05-20T07:22:12.493Z,20.57
2019-05-20T07:24:20.026Z,20.43
2019-05-20T07:26:27.555Z,20.40
2019-05-20T07:28:35.042Z,20.34
2019-05-20T07:30:42.658Z,20.35
2019-05-20T07:32:50.284Z,20.45
2019-05-20T07:34:57.802Z,20.48
2019-05-20T07:37:05.256Z,20.53
2019-05-20T07:39:12.948Z,20.67
2019-05-20T07:41:20.816Z,20.80
2019-05-20T07:43:28.621Z,20.74
2019-05-20T07:45:39.147Z,21.06
2019-05-20T07:47:47.146Z,21.23
2019-05-20T07:49:55.579Z,21.13
2019-05-20T07:52:03.735Z,21.35
2019-05-20T07:54:12.320Z,21.49
2019-05-20T07:56:24.932Z,21.46
2019-05-20T07:58:36.509Z,21.43
2019-05-20T08:00:45.221Z,21.50
2019-05-20T08:02:52.844Z,21.65
2019-05-20T08:05:00.647Z,21.85
2019-05-20T08:07:26.637Z,21.84
2019-05-20T08:09:17.718Z,21.98
2019-05-20T08:11:25.186Z,22.08
2019-05-20T08:13:32.697Z,22.18
2019-05-20T08:15:40.355Z,22.33
2019-05-20T08:17:47.941Z,22.49
2019-05-20T08:19:55.437Z,22.68
2019-05-20T08:22:03.150Z,22.33
2019-05-20T08:24:10.654Z,22.08
2019-05-20T08:26:18.298Z,21.89
2019-05-20T08:28:25.890Z,22.15
2019-05-20T08:30:36.748Z,22.29
2019-05-20T08:32:44.259Z,22.36
2019-05-20T08:34:51.823Z,22.19
2019-05-20T08:36:59.232Z,22.30
2019-05-20T08:39:08.845Z,22.12
2019-05-20T08:41:16.331Z,22.25
2019-05-20T08:43:23.792Z,22.48
2019-05-20T08:45:31.419Z,22.70
2019-05-20T08:47:38.863Z,22.87
2019-05-20T08:49:46.730Z,22.82
2019-05-20T08:51:54.637Z,22.70
2019-05-20T08:54:02.311Z,22.64
2019-05-20T08:56:10.064Z,22.90
2019-05-20T08:58:18.011Z,23.19
2019-05-20T09:00:26.244Z,22.89
2019-05-20T09:02:34.218Z,22.68
2019-05-20T09:04:42.188Z,22.96
2019-05-20T09:06:50.616Z,22.88
2019-05-20T09:08:58.681Z,23.02
2019-05-20T09:11:07.517Z,23.18
2019-05-20T09:13:15.309Z,23.17
2019-05-20T09:15:23.648Z,23.06
2019-05-20T09:17:31.305Z,23.38
2019-05-20T09:19:38.741Z,23.56
2019-05-20T09:21:46.360Z,23.83
2019-05-20T09:23:53.788Z,23.61
2019-05-20T09:26:01.250Z,23.37
2019-05-20T09:28:09.055Z,23.04
2019-05-20T09:30:19.990Z,23.04
2019-05-20T09:32:28.054Z,23.04
2019-05-20T09:34:35.681Z,23.87
2019-05-20T09:36:43.403Z,23.86
2019-05-20T09:38:50.986Z,23.89
2019-05-20T09:40:58.410Z,24.19
2019-05-20T09:43:06.057Z,24.58
2019-05-20T09:45:14.041Z,24.46
2019-05-20T09:47:21.650Z,24.30
2019-05-20T09:49:29.394Z,24.38
2019-05-20T09:51:37.089Z,24.15
2019-05-20T09:53:44.668Z,24.03
2019-05-20T09:55:52.180Z,23.96
2019-05-20T09:57:59.705Z,23.87
2019-05-20T10:00:08.976Z,23.91
2019-05-20T10:02:16.456Z,24.08
2019-05-20T10:04:24.014Z,23.87
2019-05-20T10:06:31.669Z,24.00
2019-05-20T10:08:44.452Z,24.02
2019-05-20T10:10:48.318Z,23.97
2019-05-20T10:12:55.850Z,23.72
2019-05-20T10:15:03.277Z,23.94
2019-05-20T10:17:10.772Z,24.00
2019-05-20T10:19:18.264Z,24.00
2019-05-20T10:21:25.641Z,23.77
2019-05-20T10:23:33.157Z,23.54
2019-05-20T10:25:40.781Z,23.76
2019-05-20T10:27:48.417Z,23.51
2019-05-20T10:29:55.946Z,23.49
2019-05-20T10:32:03.442Z,23.37
2019-05-20T10:34:10.884Z,23.60
2019-05-20T10:36:18.407Z,24.41
2019-05-20T10:38:25.897Z,24.39
2019-05-20T10:40:33.353Z,24.53
2019-05-20T10:42:40.872Z,24.82
2019-05-20T10:44:48.804Z,24.92
2019-05-20T10:46:56.367Z,24.43
2019-05-20T10:49:03.976Z,24.59
2019-05-20T10:51:13.492Z,24.64
2019-05-20T10:53:21.980Z,24.30
2019-05-20T10:55:29.577Z,24.50
2019-05-20T10:57:38.137Z,24.42
2019-05-20T10:59:45.595Z,24.27
2019-05-20T11:01:53.311Z,23.99
2019-05-20T11:04:01.131Z,23.88
2019-05-20T11:06:08.843Z,23.86
2019-05-20T11:08:16.865Z,23.80
2019-05-20T11:10:25.411Z,23.99
2019-05-20T11:12:32.927Z,24.23
2019-05-20T11:14:40.416Z,24.15
2019-05-20T11:16:47.829Z,24.40
2019-05-20T11:18:55.197Z,24.64
2019-05-20T11:21:02.652Z,24.95
2019-05-20T11:23:10.008Z,24.90
2019-05-20T11:25:18.035Z,24.80
2019-05-20T11:27:25.514Z,24.54
2019-05-20T11:29:32.907Z,24.43
2019-05-20T11:31:40.619Z,24.23
2019-05-20T11:33:48.044Z,23.87
2019-05-20T11:35:55.532Z,23.73
2019-05-20T11:38:02.945Z,23.65
2019-05-20T11:40:12.818Z,23.55
2019-05-20T11:42:20.973Z,23.48
2019-05-20T11:44:28.383Z,23.35
2019-05-20T11:46:35.787Z,23.26
2019-05-20T11:48:43.421Z,23.16
2019-05-20T11:50:50.989Z,23.09
2019-05-20T11:52:58.495Z,23.01
2019-05-20T11:55:06.529Z,22.96
2019-05-20T11:57:13.970Z,22.95
2019-05-20T11:59:21.507Z,22.85
2019-05-20T12:01:29.323Z,22.82
2019-05-20T12:03:36.843Z,22.76
2019-05-20T12:05:45.929Z,22.70
2019-05-20T12:07:53.380Z,22.66
2019-05-20T12:10:00.838Z,22.63
2019-05-20T12:12:08.252Z,22.56
2019-05-20T12:14:15.859Z,22.53
2019-05-20T12:16:23.354Z,22.48
2019-05-20T12:18:30.800Z,22.42
2019-05-20T12:20:38.425Z,22.42
2019-05-20T12:22:46.059Z,22.41
2019-05-20T12:24:53.495Z,22.40
2019-05-20T12:27:00.970Z,22.34
2019-05-20T12:29:08.529Z,22.34
2019-05-20T12:31:16.128Z,22.31
2019-05-20T12:33:23.616Z,22.31
2019-05-20T12:35:31.368Z,22.26
2019-05-20T12:37:39.309Z,22.22
2019-05-20T12:39:46.704Z,22.19
2019-05-20T12:41:54.166Z,22.19
2019-05-20T12:44:12.060Z,22.13
2019-05-20T12:46:10.913Z,22.11
2019-05-20T12:48:18.464Z,22.11
2019-05-20T12:50:26.138Z,22.10
2019-05-20T12:52:33.664Z,22.07
2019-05-20T12:54:41.274Z,22.04
2019-05-20T12:56:49.094Z,21.96
2019-05-20T12:58:56.648Z,21.88
2019-05-20T13:01:04.318Z,21.85
2019-05-20T13:03:12.029Z,21.83
2019-05-20T13:05:21.688Z,21.71
2019-05-20T13:07:29.344Z,21.73
2019-05-20T13:09:36.943Z,21.74
2019-05-20T13:11:44.727Z,21.68
2019-05-20T13:13:52.356Z,21.67
2019-05-20T13:16:00.156Z,21.64
2019-05-20T13:18:07.886Z,21.65
2019-05-20T13:20:15.823Z,21.68
2019-05-20T13:22:23.730Z,21.74
2019-05-20T13:24:31.297Z,21.83
2019-05-20T13:26:38.891Z,21.90
2019-05-20T13:28:46.732Z,22.03
2019-05-20T13:30:54.281Z,22.03
2019-05-20T13:33:01.863Z,22.08
2019-05-20T13:35:10.646Z,22.17
2019-05-20T13:37:18.392Z,22.26
2019-05-20T13:39:26.251Z,22.28
2019-05-20T13:41:33.953Z,22.59
2019-05-20T13:43:41.577Z,22.57
2019-05-20T13:45:49.179Z,22.61
2019-05-20T13:47:56.941Z,22.56
2019-05-20T13:50:04.703Z,22.76
2019-05-20T13:52:12.288Z,22.92
2019-05-20T13:54:19.779Z,23.00
2019-05-20T13:56:27.584Z,22.95
2019-05-20T13:58:35.567Z,23.11
2019-05-20T14:00:43.391Z,23.28
2019-05-20T14:02:51.172Z,23.53
2019-05-20T14:04:58.779Z,23.52
2019-05-20T14:07:06.712Z,23.70
2019-05-20T14:09:14.270Z,24.00
2019-05-20T14:11:33.774Z,23.96
2019-05-20T14:13:31.051Z,23.88
2019-05-20T14:15:38.703Z,23.85
2019-05-20T14:17:46.790Z,24.09
2019-05-20T14:19:54.410Z,23.86
2019-05-20T14:22:02.001Z,23.77
2019-05-20T14:24:09.477Z,23.78
2019-05-20T14:26:17.034Z,23.89
2019-05-20T14:28:24.473Z,23.81
2019-05-20T14:30:32.132Z,23.36
2019-05-20T14:32:39.758Z,23.19
2019-05-20T14:34:48.578Z,23.04
2019-05-20T14:36:56.183Z,22.79
2019-05-20T14:39:04.458Z,22.78
2019-05-20T14:41:20.952Z,22.68
2019-05-20T14:43:21.166Z,22.51
2019-05-20T14:45:28.628Z,22.57
2019-05-20T14:47:36.364Z,22.71
2019-05-20T14:49:43.916Z,22.50
2019-05-20T14:51:51.331Z,22.70
2019-05-20T14:53:59.748Z,22.59
2019-05-20T14:56:07.428Z,22.43
2019-05-20T14:58:14.970Z,22.40
2019-05-20T15:00:22.509Z,22.17
2019-05-20T15:02:31.256Z,22.25
2019-05-20T15:04:39.088Z,22.18
2019-05-20T15:06:46.685Z,22.07
2019-05-20T15:08:54.207Z,22.25
2019-05-20T15:11:01.858Z,22.28
2019-05-20T15:13:09.461Z,22.21
2019-05-20T15:15:18.047Z,22.30
2019-05-20T15:17:25.631Z,22.31
2019-05-20T15:19:33.187Z,22.46
2019-05-20T15:21:40.865Z,22.72
2019-05-20T15:23:48.307Z,22.51
2019-05-20T15:25:56.873Z,22.45
2019-05-20T15:28:04.474Z,22.36
2019-05-20T15:30:12.847Z,22.62
2019-05-20T15:32:20.681Z,22.42
2019-05-20T15:34:28.188Z,22.40
2019-05-20T15:36:35.888Z,22.35
2019-05-20T15:38:43.422Z,22.29
2019-05-20T15:40:51.202Z,22.36
2019-05-20T15:42:58.615Z,22.47
2019-05-20T15:45:07.224Z,22.63
2019-05-20T15:47:18.650Z,22.45
2019-05-20T15:49:25.521Z,22.43
2019-05-20T15:51:34.770Z,22.41
2019-05-20T15:53:42.412Z,22.35
2019-05-20T15:55:50.235Z,22.27
2019-05-20T15:57:57.830Z,22.29
2019-05-20T16:00:06.838Z,22.28
2019-05-20T16:02:15.014Z,22.31
2019-05-20T16:04:24.335Z,22.25
2019-05-20T16:06:31.858Z,22.33
2019-05-20T16:08:39.895Z,22.28
2019-05-20T16:10:47.463Z,22.27
2019-05-20T16:12:55.135Z,22.23
2019-05-20T16:15:03.177Z,22.28
2019-05-20T16:17:11.308Z,22.26
2019-05-20T16:19:18.841Z,22.13
2019-05-20T16:21:26.559Z,22.01
2019-05-20T16:23:34.708Z,21.93
2019-05-20T16:25:42.914Z,21.78
2019-05-20T16:27:50.783Z,21.65
2019-05-20T16:30:06.181Z,21.55
2019-05-20T16:32:08.225Z,21.53
2019-05-20T16:34:15.746Z,21.39
2019-05-20T16:36:23.229Z,21.32
2019-05-20T16:38:30.980Z,21.19
2019-05-20T16:40:38.984Z,21.02
2019-05-20T16:42:46.894Z,20.92
2019-05-20T16:44:55.444Z,20.83
2019-05-20T16:47:03.118Z,20.72
2019-05-20T16:49:11.890Z,20.66
2019-05-20T16:51:22.379Z,20.49
2019-05-20T16:53:31.281Z,20.43
2019-05-20T16:55:39.441Z,20.31
2019-05-20T16:57:47.329Z,20.20
2019-05-20T16:59:56.093Z,19.98
2019-05-20T17:02:04.019Z,19.79
2019-05-20T17:04:12.550Z,19.83
2019-05-20T17:06:21.112Z,19.49
2019-05-20T17:08:29.001Z,19.39
2019-05-20T17:10:36.866Z,19.21
2019-05-20T17:12:44.439Z,18.99
2019-05-20T17:14:52.704Z,18.84
2019-05-20T17:17:00.466Z,18.80
2019-05-20T17:19:08.433Z,18.69
2019-05-20T17:21:16.350Z,18.66
2019-05-20T17:23:24.725Z,18.62
2019-05-20T17:25:33.068Z,18.67
2019-05-20T17:27:41.102Z,18.51
2019-05-20T17:29:48.620Z,18.49
2019-05-20T17:31:56.187Z,18.54
2019-05-20T17:34:05.162Z,18.39
2019-05-20T17:36:13.016Z,18.36
2019-05-20T17:38:21.138Z,18.32
2019-05-20T17:40:28.988Z,18.36
2019-05-20T17:42:37.529Z,18.24
2019-05-20T17:44:46.373Z,18.20
2019-05-20T17:46:55.301Z,18.21
2019-05-20T17:49:04.089Z,18.24
2019-05-20T17:51:13.407Z,18.17
2019-05-20T17:53:21.792Z,18.10
2019-05-20T17:55:30.463Z,18.08
2019-05-20T17:57:39.362Z,18.12
2019-05-20T17:59:47.059Z,18.11
2019-05-20T18:01:54.740Z,18.08
2019-05-20T18:04:02.601Z,18.06
2019-05-20T18:06:10.982Z,18.03
2019-05-20T18:08:18.561Z,18.06
2019-05-20T18:10:26.831Z,18.02
2019-05-20T18:12:35.249Z,18.01
2019-05-20T18:14:45.893Z,17.95
2019-05-20T18:16:54.234Z,17.94
2019-05-20T18:19:04.277Z,17.95
2019-05-20T18:21:12.394Z,17.89
2019-05-20T18:23:20.620Z,17.85
2019-05-20T18:25:28.468Z,17.89
2019-05-20T18:27:36.978Z,17.83
2019-05-20T18:29:44.949Z,17.87
2019-05-20T18:31:53.147Z,17.82
2019-05-20T18:34:01.891Z,17.87
2019-05-20T18:36:10.081Z,17.97
2019-05-20T18:38:18.194Z,17.84
2019-05-20T18:40:27.140Z,17.80
2019-05-20T18:42:36.851Z,17.77
2019-05-20T18:44:44.900Z,17.98
2019-05-20T18:46:53.604Z,17.91
2019-05-20T18:49:01.583Z,17.84
2019-05-20T18:51:11.127Z,17.71
2019-05-20T18:53:19.040Z,17.80
2019-05-20T18:55:26.653Z,17.75
2019-05-20T18:57:34.542Z,17.69
2019-05-20T18:59:43.156Z,17.61
2019-05-20T19:02:04.639Z,17.65
2019-05-20T19:04:01.104Z,17.63
2019-05-20T19:06:08.969Z,17.63
2019-05-20T19:08:16.925Z,17.65
2019-05-20T19:10:24.857Z,17.76
2019-05-20T19:12:32.869Z,17.71
2019-05-20T19:14:40.486Z,17.65
2019-05-20T19:16:48.851Z,17.59
2019-05-20T19:18:56.882Z,17.72
2019-05-20T19:21:04.712Z,17.62
2019-05-20T19:23:12.348Z,17.58
2019-05-20T19:25:20.032Z,17.51
2019-05-20T19:27:27.989Z,17.50
2019-05-20T19:29:35.907Z,17.47
2019-05-20T19:31:43.532Z,17.46
2019-05-20T19:33:51.181Z,17.45
2019-05-20T19:36:02.053Z,17.50
2019-05-20T19:38:09.942Z,17.42
2019-05-20T19:40:17.746Z,17.39
2019-05-20T19:42:26.262Z,17.37
2019-05-20T19:44:34.241Z,17.39
2019-05-20T19:46:41.893Z,17.34
2019-05-20T19:48:49.620Z,17.32
2019-05-20T19:50:57.428Z,17.25
2019-05-20T19:53:05.142Z,17.24
2019-05-20T19:55:13.245Z,17.16
2019-05-20T19:57:20.888Z,17.18
2019-05-20T19:59:28.566Z,17.06
2019-05-20T20:01:36.451Z,17.05
2019-05-20T20:03:44.328Z,17.05
2019-05-20T20:05:52.091Z,17.03
2019-05-20T20:08:00.334Z,16.98
2019-05-20T20:10:08.831Z,16.93
2019-05-20T20:12:16.604Z,16.89
2019-05-20T20:14:24.361Z,16.86
2019-05-20T20:16:31.940Z,16.93
2019-05-20T20:18:39.504Z,16.84
2019-05-20T20:20:47.211Z,16.85
2019-05-20T20:22:54.785Z,16.85
2019-05-20T20:25:02.937Z,16.81
2019-05-20T20:27:10.997Z,16.73
2019-05-20T20:29:20.015Z,16.73
2019-05-20T20:31:28.583Z,16.64
2019-05-20T20:33:36.404Z,16.71
2019-05-20T20:35:44.965Z,16.62
2019-05-20T20:37:55.116Z,16.64
2019-05-20T20:40:03.153Z,16.60
2019-05-20T20:42:11.746Z,16.52
2019-05-20T20:44:20.118Z,16.52
2019-05-20T20:46:28.010Z,16.45
2019-05-20T20:48:35.661Z,16.42
2019-05-20T20:50:43.274Z,16.38
2019-05-20T20:52:51.672Z,16.39
2019-05-20T20:54:59.650Z,16.38
2019-05-20T20:57:07.725Z,16.32
2019-05-20T20:59:15.435Z,16.28
2019-05-20T21:01:23.421Z,16.33
2019-05-20T21:03:31.084Z,16.28
2019-05-20T21:05:38.964Z,16.22
2019-05-20T21:07:46.873Z,16.22
2019-05-20T21:09:54.636Z,16.23
2019-05-20T21:12:02.536Z,16.22
2019-05-20T21:14:10.524Z,16.20
2019-05-20T21:16:18.348Z,16.19
2019-05-20T21:18:26.545Z,16.23
2019-05-20T21:20:34.906Z,16.19
2019-05-20T21:22:42.980Z,16.19
2019-05-20T21:24:50.797Z,16.24
2019-05-20T21:26:58.932Z,16.18
2019-05-20T21:29:06.910Z,16.14
2019-05-20T21:31:14.623Z,16.15
2019-05-20T21:33:22.315Z,16.10
2019-05-20T21:35:29.842Z,16.13
2019-05-20T21:37:37.550Z,16.15
2019-05-20T21:39:45.104Z,16.14
2019-05-20T21:41:52.664Z,16.12
2019-05-20T21:44:00.246Z,16.08
2019-05-20T21:46:07.984Z,16.04
2019-05-20T21:48:15.701Z,15.99
2019-05-20T21:50:23.111Z,16.03
2019-05-20T21:52:31.043Z,16.11
2019-05-20T21:54:38.554Z,16.00
2019-05-20T21:56:49.778Z,16.00
2019-05-20T21:58:55.542Z,15.94
2019-05-20T22:01:03.624Z,15.95
2019-05-20T22:03:23.572Z,15.87
2019-05-20T22:05:20.569Z,15.81
2019-05-20T22:07:28.330Z,15.83
2019-05-20T22:09:36.054Z,15.88
2019-05-20T22:11:43.613Z,15.71
2019-05-20T22:13:51.314Z,15.76
2019-05-20T22:15:58.742Z,15.78
2019-05-20T22:18:06.733Z,15.77
2019-05-20T22:20:16.231Z,15.74
2019-05-20T22:22:42.637Z,15.70
2019-05-20T22:24:50.660Z,15.61
2019-05-20T22:26:58.313Z,15.69
2019-05-20T22:29:05.991Z,15.57
2019-05-20T22:31:13.495Z,15.58
2019-05-20T22:33:20.961Z,15.50
2019-05-20T22:35:28.570Z,15.63
2019-05-20T22:37:36.097Z,15.56
2019-05-20T22:39:43.624Z,15.55
2019-05-20T22:41:51.062Z,15.59
2019-05-20T22:43:58.512Z,15.53
2019-05-20T22:46:06.206Z,15.53
2019-05-20T22:48:13.684Z,15.55
2019-05-20T22:50:21.144Z,15.57
2019-05-20T22:52:28.648Z,15.56
2019-05-20T22:54:36.117Z,15.52
2019-05-20T22:56:43.630Z,15.58
2019-05-20T22:58:51.209Z,15.70
2019-05-20T23:00:58.645Z,15.55
2019-05-20T23:03:06.263Z,15.45
2019-05-20T23:05:14.331Z,15.44
2019-05-20T23:07:21.827Z,15.54
2019-05-20T23:09:29.514Z,15.43
2019-05-20T23:11:37.128Z,15.44
2019-05-20T23:13:44.587Z,15.37
2019-05-20T23:15:55.466Z,15.31
2019-05-20T23:18:01.310Z,15.34
2019-05-20T23:20:09.710Z,15.30
2019-05-20T23:22:17.184Z,15.38
2019-05-20T23:24:24.681Z,15.21
2019-05-20T23:26:32.065Z,15.40
2019-05-20T23:28:39.551Z,15.32
2019-05-20T23:30:47.115Z,15.33
2019-05-20T23:32:54.577Z,15.31
2019-05-20T23:35:02.256Z,15.28
2019-05-20T23:37:09.847Z,15.22
2019-05-20T23:39:17.310Z,15.28
2019-05-20T23:41:24.808Z,15.23
2019-05-20T23:43:32.170Z,15.32
2019-05-20T23:45:39.771Z,15.19
2019-05-20T23:47:47.277Z,15.10
2019-05-20T23:49:54.730Z,15.15
2019-05-20T23:52:02.220Z,15.08
2019-05-20T23:54:09.705Z,15.02
2019-05-20T23:56:17.174Z,15.06
2019-05-20T23:58:24.581Z,15.08
